Asahikawa Air Base, Japan

9:18 PM JST on February 09, 2016 (GMT +0900)
Asahikawa | | Change Station
CLOSE
Current Station
Airport
Location: Asahikawa Airport,
Elevation: 682 ft
Nearby Weather Stations

Elev 682 ft 43.67 °N, 142.45 °E | Updated 1 hour ago

Scattered Clouds
Scattered Clouds
28 °F
Feels Like 18 °F
N
12
Wind Variable Wind from South

Today
High -- | Low -- °F
--% Chance of Precip.
Yesterday
High -- | Low -- °F
Precip. -- in
Pressure 29.53 in
Visibility 6.2 miles
Clouds Few 2500 ft
Scattered Clouds 4000 ft
Windchill 18 °F
Dew Point 23 °F
Humidity 80%
Rainfall 0.00 in
Snow Depth Not available.
6:39 AM 4:50 PM
New Moon, 1% visible
METAR RJEC 091100Z 18010KT 9999 FEW025 SCT040 M02/M05 Q1000
Pressure 29.53 in
Visibility 6.2 miles
Clouds Few 2500 ft
Scattered Clouds 4000 ft
Windchill 18 °F
Dew Point 23 °F
Humidity 80%
Rainfall 0.00 in
Snow Depth Not available.
6:39 AM 4:50 PM
New Moon, 1% visible
METAR RJEC 091100Z 18010KT 9999 FEW025 SCT040 M02/M05 Q1000

10-Day Weather Forecast

No radar image for this location.
×

Almanac

Astronomy

Feb. 09, 2016 Rise Set
Actual Time
Civil Twilight
Nautical Twilight
Astronomical Twilight
Moon
Length of Visible Light
Length of Day
Tomorrow will be .
, % of the Moon is Illuminated

Today's Extremes

Country Highs Country Lows

Community

WunderPhotos

Upload Photos

1,891,588 photos uploaded!

WunderBlog® & News

Nearby

Air Quality

  Air Quality AQ Index Pollutant
Not available.

Snow Depth

Station Depth Elevation

Earthquake Activity

City Distance Mag. Time & Date
Minimum magnitude displayed is 2.5.

Coastal Water Temperatures

Place Temperature

Stations

Nearby Weather Stations

Station Location Temp. Windchill Dew Point Humidity Wind Precip. Elev Updated Type